createdAt,value
2022-09-20T00:01:18.028Z,99002.91
2022-09-20T00:03:46.433Z,99002.00
2022-09-20T00:06:16.328Z,99008.00
2022-09-20T00:08:44.500Z,99011.38
2022-09-20T00:11:15.485Z,98997.63
2022-09-20T00:13:44.325Z,99012.19
2022-09-20T00:16:15.926Z,99007.03
2022-09-20T00:18:42.776Z,99006.16
2022-09-20T00:21:17.125Z,99010.41
2022-09-20T00:23:44.241Z,99012.94
2022-09-20T00:26:11.256Z,99019.78
2022-09-20T00:28:37.801Z,99013.78
2022-09-20T00:31:04.927Z,99008.63
2022-09-20T00:33:50.216Z,99005.22
2022-09-20T00:36:16.736Z,98984.63
2022-09-20T00:38:43.292Z,99006.09
2022-09-20T00:41:10.301Z,99012.06
2022-09-20T00:43:45.639Z,99012.09
2022-09-20T00:46:27.361Z,99006.97
2022-09-20T00:48:59.461Z,99013.00
2022-09-20T00:51:29.908Z,99007.88
2022-09-20T00:53:59.183Z,99003.56
2022-09-20T00:56:31.279Z,99013.91
2022-09-20T00:59:27.107Z,99018.19
2022-09-20T01:02:03.157Z,99000.09
2022-09-20T01:04:30.388Z,99025.06
2022-09-20T01:07:01.902Z,99019.94
2022-09-20T01:09:28.678Z,99013.13
2022-09-20T01:11:57.702Z,99021.69
2022-09-20T01:14:26.509Z,99012.25
2022-09-20T01:16:56.155Z,99008.03
2022-09-20T01:19:37.882Z,99022.59
2022-09-20T01:22:14.038Z,99017.50
2022-09-20T01:25:00.443Z,98990.09
2022-09-20T01:27:42.037Z,99011.56
2022-09-20T01:30:13.526Z,99013.25
2022-09-20T01:32:54.767Z,99009.00
2022-09-20T01:35:25.453Z,99016.69
2022-09-20T01:38:13.812Z,98998.72
2022-09-20T01:40:56.610Z,99011.59
2022-09-20T01:43:35.744Z,99011.59
2022-09-20T01:46:32.476Z,99000.47
2022-09-20T01:49:37.740Z,98997.09
2022-09-20T01:52:41.592Z,98992.81
2022-09-20T01:55:42.186Z,99000.53
2022-09-20T01:58:33.351Z,98995.41
2022-09-20T02:01:05.894Z,98996.25
2022-09-20T02:03:54.049Z,98998.81
2022-09-20T02:06:47.516Z,98996.25
2022-09-20T02:09:32.688Z,99003.91
2022-09-20T02:12:34.217Z,98997.03
2022-09-20T02:15:03.464Z,99008.16
2022-09-20T02:17:38.889Z,99001.31
2022-09-20T02:20:09.126Z,99000.44
2022-09-20T02:22:56.293Z,99007.22
2022-09-20T02:25:31.198Z,99002.09
2022-09-20T02:28:06.575Z,99008.91
2022-09-20T02:30:57.913Z,99013.19
2022-09-20T02:33:43.151Z,99012.34
2022-09-20T02:36:37.473Z,99012.31
2022-09-20T02:39:20.648Z,99012.25
2022-09-20T02:41:55.644Z,99003.66
2022-09-20T02:44:38.778Z,99006.16
2022-09-20T02:47:33.109Z,99015.53
2022-09-20T02:50:05.693Z,99006.91
2022-09-20T02:52:43.202Z,99003.41
2022-09-20T02:55:49.070Z,99002.50
2022-09-20T02:58:18.135Z,99007.59
2022-09-20T03:00:54.234Z,99004.94
2022-09-20T03:03:29.659Z,99008.25
2022-09-20T03:06:35.386Z,99007.34
2022-09-20T03:09:18.380Z,99016.69
2022-09-20T03:12:03.452Z,99010.69
2022-09-20T03:14:37.627Z,99010.66
2022-09-20T03:17:36.490Z,99002.94
2022-09-20T03:20:25.352Z,99009.75
2022-09-20T03:23:05.112Z,99002.09
2022-09-20T03:25:43.524Z,99012.31
2022-09-20T03:28:34.954Z,99000.38
2022-09-20T03:31:07.458Z,99006.34
2022-09-20T03:33:47.877Z,99013.19
2022-09-20T03:36:51.953Z,99010.63
2022-09-20T03:39:54.001Z,99008.91
2022-09-20T03:42:25.592Z,99017.50
2022-09-20T03:45:11.245Z,99016.69
2022-09-20T03:48:08.072Z,99012.41
2022-09-20T03:50:34.456Z,99010.72
2022-09-20T03:53:26.011Z,99008.16
2022-09-20T03:56:20.052Z,99002.13
2022-09-20T03:59:18.237Z,99013.31
2022-09-20T04:01:59.929Z,99014.19
2022-09-20T04:04:52.797Z,99015.91
2022-09-20T04:07:26.857Z,99015.94
2022-09-20T04:10:02.265Z,99016.78
2022-09-20T04:12:56.855Z,99015.16
2022-09-20T04:15:37.282Z,99021.16
2022-09-20T04:18:28.181Z,99012.63
2022-09-20T04:21:05.676Z,99015.25
2022-09-20T04:23:43.171Z,99017.84
2022-09-20T04:26:10.989Z,99017.00
2022-09-20T04:28:47.559Z,99018.75
2022-09-20T04:31:43.567Z,99023.94
2022-09-20T04:34:51.977Z,99035.06
2022-09-20T04:37:38.428Z,99041.94
2022-09-20T04:40:23.597Z,99047.03
2022-09-20T04:43:27.459Z,99046.22
2022-09-20T04:46:06.852Z,99053.09
2022-09-20T04:48:51.966Z,99056.56
2022-09-20T04:51:37.233Z,99054.88
2022-09-20T04:54:15.875Z,99062.63
2022-09-20T04:56:42.373Z,99058.38
2022-09-20T04:59:10.391Z,99054.97
2022-09-20T05:02:30.854Z,99061.81
2022-09-20T05:05:42.229Z,99059.28
2022-09-20T05:08:29.965Z,99053.31
2022-09-20T05:11:14.951Z,99056.72
2022-09-20T05:14:05.119Z,99052.53
2022-09-20T05:16:58.800Z,99045.69
2022-09-20T05:19:26.233Z,99054.28
2022-09-20T05:22:46.693Z,99046.63
2022-09-20T05:25:52.068Z,99042.34
2022-09-20T05:29:01.626Z,99048.34
2022-09-20T05:31:40.923Z,99046.63
2022-09-20T05:34:33.546Z,99044.91
2022-09-20T05:37:24.464Z,99044.91
2022-09-20T05:40:19.116Z,99044.09
2022-09-20T05:43:11.325Z,99051.81
2022-09-20T05:45:57.891Z,99047.56
2022-09-20T05:48:49.934Z,99047.56
2022-09-20T05:51:34.729Z,99038.22
2022-09-20T05:54:36.884Z,99040.88
2022-09-20T05:57:27.970Z,99040.84
2022-09-20T06:00:00.248Z,99041.72
2022-09-20T06:03:04.393Z,99048.59
2022-09-20T06:05:49.082Z,99053.72
2022-09-20T06:08:44.606Z,99058.88
2022-09-20T06:11:33.106Z,99050.34
2022-09-20T06:14:17.884Z,99049.53
2022-09-20T06:17:03.105Z,99056.47
2022-09-20T06:20:02.784Z,99057.38
2022-09-20T06:22:42.903Z,99053.13
2022-09-20T06:25:09.380Z,99052.34
2022-09-20T06:27:45.040Z,99051.53
2022-09-20T06:30:30.074Z,99052.41
2022-09-20T06:33:13.180Z,99050.75
2022-09-20T06:36:23.229Z,99053.38
2022-09-20T06:39:22.639Z,99055.09
2022-09-20T06:41:49.613Z,99061.97
2022-09-20T06:44:16.149Z,99062.00
2022-09-20T06:46:42.773Z,99059.44
2022-09-20T06:49:09.575Z,99052.63
2022-09-20T06:51:38.761Z,99067.19
2022-09-20T06:54:11.388Z,99062.94
2022-09-20T06:56:38.444Z,99069.81
2022-09-20T06:59:08.634Z,99061.28
2022-09-20T07:01:35.321Z,99061.28
2022-09-20T07:04:02.924Z,99057.91
2022-09-20T07:06:29.504Z,99057.06
2022-09-20T07:08:56.113Z,99055.34
2022-09-20T07:11:23.485Z,99057.97
2022-09-20T07:13:52.072Z,99048.53
2022-09-20T07:16:18.812Z,99049.41
2022-09-20T07:18:45.915Z,99052.84
2022-09-20T07:21:18.023Z,99047.75
2022-09-20T07:23:51.422Z,99044.38
2022-09-20T07:26:25.789Z,99040.94
2022-09-20T07:28:53.191Z,99030.66
2022-09-20T07:31:22.929Z,99028.13
2022-09-20T07:33:49.638Z,99038.38
2022-09-20T07:36:16.718Z,99040.13
2022-09-20T07:38:50.493Z,99046.97
2022-09-20T07:41:19.093Z,99041.00
2022-09-20T07:43:46.651Z,99040.13
2022-09-20T07:46:15.940Z,99038.41
2022-09-20T07:48:42.740Z,99038.41
2022-09-20T07:51:13.891Z,99035.84
2022-09-20T07:53:41.209Z,99036.66
2022-09-20T07:56:15.828Z,99035.81
2022-09-20T07:58:43.243Z,99036.69
2022-09-20T08:01:12.645Z,99029.81
2022-09-20T08:03:40.541Z,99028.94
2022-09-20T08:06:15.092Z,99034.06
2022-09-20T08:08:42.344Z,99032.34
2022-09-20T08:11:22.371Z,99033.19
2022-09-20T08:14:07.709Z,99029.78
2022-09-20T08:16:40.775Z,99022.03
2022-09-20T08:19:07.498Z,99024.63
2022-09-20T08:21:35.897Z,99016.88
2022-09-20T08:24:03.973Z,99016.88
2022-09-20T08:26:35.798Z,99016.00
2022-09-20T08:29:02.812Z,99004.00
2022-09-20T08:31:34.283Z,98997.13
2022-09-20T08:34:03.766Z,99004.00
2022-09-20T08:36:36.362Z,99000.53
2022-09-20T08:42:12.897Z,99004.00
2022-09-20T08:44:59.994Z,99011.72
2022-09-20T08:47:36.610Z,99012.59
2022-09-20T08:50:09.529Z,99007.47
2022-09-20T08:52:39.859Z,99007.44
2022-09-20T08:55:36.557Z,99008.28
2022-09-20T08:58:08.130Z,99009.16
2022-09-20T09:00:37.171Z,98998.00
2022-09-20T09:03:12.258Z,99003.13
2022-09-20T09:05:44.382Z,98999.72
2022-09-20T09:08:16.871Z,99002.28
2022-09-20T09:10:56.419Z,99013.44
2022-09-20T09:13:34.322Z,99010.00
2022-09-20T09:16:06.510Z,99013.44
2022-09-20T09:18:39.452Z,99008.28
2022-09-20T09:21:07.778Z,99011.72
2022-09-20T09:23:47.735Z,99007.44
2022-09-20T09:26:21.292Z,99010.88
2022-09-20T09:29:07.461Z,99014.31
2022-09-20T09:31:34.228Z,99015.19
2022-09-20T09:34:01.024Z,99016.88
2022-09-20T09:36:27.850Z,99015.19
2022-09-20T09:39:16.397Z,99016.88
2022-09-20T09:41:43.287Z,99008.31
2022-09-20T09:44:20.704Z,99009.16
2022-09-20T09:46:47.866Z,99017.75
2022-09-20T09:49:24.735Z,99009.19
2022-09-20T09:52:16.135Z,99009.19
2022-09-20T09:54:51.445Z,99002.34
2022-09-20T09:57:36.577Z,99007.50
2022-09-20T10:00:21.564Z,99008.34
2022-09-20T10:03:04.002Z,99016.06
2022-09-20T10:06:06.942Z,99012.63
2022-09-20T10:08:58.087Z,99010.06
2022-09-20T10:11:37.971Z,99016.06
2022-09-20T10:14:28.305Z,99012.63
2022-09-20T10:17:10.050Z,99015.22
2022-09-20T10:19:40.511Z,99008.31
2022-09-20T10:22:24.584Z,99012.66
2022-09-20T10:25:32.115Z,99006.66
2022-09-20T10:28:24.571Z,99003.22
2022-09-20T10:30:56.946Z,99006.63
2022-09-20T10:33:37.558Z,99004.03
2022-09-20T10:36:32.309Z,99005.72
2022-09-20T10:39:22.773Z,98997.97
2022-09-20T10:42:26.028Z,98997.06
2022-09-20T10:45:11.578Z,98990.22
2022-09-20T10:48:18.423Z,98980.75
2022-09-20T10:50:52.308Z,98984.19
2022-09-20T10:53:37.343Z,98980.72
2022-09-20T10:56:24.020Z,98978.16
2022-09-20T10:58:56.847Z,98979.88
2022-09-20T11:01:31.168Z,98968.72
2022-09-20T11:04:09.737Z,98972.16
2022-09-20T11:06:51.736Z,98978.16
2022-09-20T11:09:23.351Z,98972.19
2022-09-20T11:11:55.953Z,98955.03
2022-09-20T11:14:33.417Z,98955.06
2022-09-20T11:17:17.342Z,98959.34
2022-09-20T11:19:51.497Z,98961.94
2022-09-20T11:22:32.649Z,98958.47
2022-09-20T11:25:20.401Z,98959.38
2022-09-20T11:28:00.963Z,98952.47
2022-09-20T11:30:30.236Z,98953.34
2022-09-20T11:33:21.696Z,98958.47
2022-09-20T11:35:51.704Z,98955.91
2022-09-20T11:38:25.095Z,98948.19
2022-09-20T11:41:28.338Z,98950.75
2022-09-20T11:44:12.180Z,98960.22
2022-09-20T11:46:45.185Z,98960.22
2022-09-20T11:49:19.793Z,98955.06
2022-09-20T11:52:05.258Z,98956.78
2022-09-20T11:54:37.801Z,98951.66
2022-09-20T11:57:05.979Z,98955.13
2022-09-20T11:59:33.974Z,98945.69
2022-09-20T12:02:04.347Z,98950.84
2022-09-20T12:04:35.665Z,98946.53
2022-09-20T12:07:18.270Z,98946.53
2022-09-20T12:10:01.291Z,98946.56
2022-09-20T12:12:45.299Z,98950.00
2022-09-20T12:15:27.054Z,98944.88
2022-09-20T12:17:53.562Z,98946.59
2022-09-20T12:20:35.050Z,98941.47
2022-09-20T12:23:42.582Z,98938.91
2022-09-20T12:26:36.895Z,98945.78
2022-09-20T12:29:23.629Z,98954.34
2022-09-20T12:31:52.471Z,98947.50
2022-09-20T12:34:18.950Z,98947.50
2022-09-20T12:36:54.250Z,98950.09
2022-09-20T12:39:30.048Z,98948.38
2022-09-20T12:42:03.639Z,98951.81
2022-09-20T12:44:48.874Z,98960.38
2022-09-20T12:47:26.912Z,98955.22
2022-09-20T12:50:15.357Z,98939.81
2022-09-20T12:52:50.800Z,98950.06
2022-09-20T12:55:41.099Z,98949.25
2022-09-20T12:58:19.783Z,98941.53
2022-09-20T13:00:48.975Z,98939.81
2022-09-20T13:03:15.492Z,98938.09
2022-09-20T13:05:46.749Z,98937.22
2022-09-20T13:08:27.298Z,98938.97
2022-09-20T13:11:09.424Z,98923.50
2022-09-20T13:13:44.290Z,98924.38
2022-09-20T13:16:34.215Z,98926.97
2022-09-20T13:19:07.950Z,98924.38
2022-09-20T13:21:38.455Z,98928.66
2022-09-20T13:24:06.350Z,98926.09
2022-09-20T13:26:47.030Z,98919.22
2022-09-20T13:29:29.290Z,98918.38
2022-09-20T13:31:56.497Z,98914.06
2022-09-20T13:34:25.049Z,98923.50
2022-09-20T13:36:58.246Z,98920.94
2022-09-20T13:39:29.619Z,98928.66
2022-09-20T13:42:07.017Z,98912.38
2022-09-20T13:44:34.851Z,98911.53
2022-09-20T13:47:01.686Z,98919.22
2022-09-20T13:49:32.582Z,98914.09
2022-09-20T13:51:59.534Z,98917.50
2022-09-20T13:54:27.612Z,98920.94
2022-09-20T13:57:03.676Z,98909.81
2022-09-20T13:59:35.208Z,98908.06
2022-09-20T14:02:02.896Z,98915.78
2022-09-20T14:04:31.456Z,98909.81
2022-09-20T14:07:00.603Z,98910.66
2022-09-20T14:09:32.876Z,98910.66
2022-09-20T14:12:00.638Z,98913.22
2022-09-20T14:14:27.927Z,98918.38
2022-09-20T14:16:57.429Z,98917.50
2022-09-20T14:19:32.888Z,98932.94
2022-09-20T14:22:03.937Z,98934.63
2022-09-20T14:24:37.085Z,98930.31
2022-09-20T14:27:17.130Z,98932.03
2022-09-20T14:29:46.274Z,98931.19
2022-09-20T14:32:18.882Z,98935.47
2022-09-20T14:35:00.647Z,98928.59
2022-09-20T14:37:42.438Z,98931.19
2022-09-20T14:40:30.455Z,98926.06
2022-09-20T14:43:05.232Z,98915.75
2022-09-20T14:45:33.352Z,98920.88
2022-09-20T14:48:09.372Z,98906.34
2022-09-20T14:50:43.393Z,98917.47
2022-09-20T14:53:10.762Z,98922.63
2022-09-20T14:55:54.507Z,98913.19
2022-09-20T14:58:21.042Z,98914.03
2022-09-20T15:00:54.119Z,98912.31
2022-09-20T15:03:27.612Z,98935.44
2022-09-20T15:05:54.278Z,98935.44
2022-09-20T15:08:20.864Z,98938.03
2022-09-20T15:10:47.918Z,98932.03
2022-09-20T15:13:14.958Z,98932.88
2022-09-20T15:15:44.209Z,98934.56
2022-09-20T15:18:22.866Z,98933.72
2022-09-20T15:20:53.286Z,98931.16
2022-09-20T15:23:20.433Z,98926.00
2022-09-20T15:25:50.778Z,98930.28
2022-09-20T15:28:17.449Z,98928.59
2022-09-20T15:30:45.737Z,98933.69
2022-09-20T15:33:13.221Z,98931.13
2022-09-20T15:35:41.685Z,98929.44
2022-09-20T15:38:11.638Z,98920.84
2022-09-20T15:40:42.794Z,98921.69
2022-09-20T15:43:13.300Z,98931.97
2022-09-20T15:45:50.935Z,98935.38
2022-09-20T15:48:22.207Z,98929.38
2022-09-20T15:51:08.735Z,98938.78
2022-09-20T15:53:38.547Z,98928.50
2022-09-20T15:56:19.322Z,98932.78
2022-09-20T15:58:48.407Z,98929.34
2022-09-20T16:01:18.652Z,98931.91
2022-09-20T16:03:46.530Z,98943.06
2022-09-20T16:06:13.822Z,98942.16
2022-09-20T16:08:42.516Z,98944.72
2022-09-20T16:11:13.806Z,98941.28
2022-09-20T16:13:40.721Z,98942.13
2022-09-20T16:16:10.137Z,98944.69
2022-09-20T16:18:55.612Z,98949.81
2022-09-20T16:21:22.530Z,98954.94
2022-09-20T16:23:56.803Z,98953.25
2022-09-20T16:26:25.868Z,98948.97
2022-09-20T16:28:54.356Z,98962.66
2022-09-20T16:31:50.035Z,98957.56
2022-09-20T16:34:19.435Z,98942.97
2022-09-20T16:36:47.571Z,98951.56
2022-09-20T16:39:15.488Z,98947.28
2022-09-20T16:41:43.549Z,98948.13
2022-09-20T16:44:10.110Z,98949.00
2022-09-20T16:46:37.400Z,98944.72
2022-09-20T16:49:06.343Z,98963.56
2022-09-20T16:51:35.793Z,98953.25
2022-09-20T16:54:09.687Z,98948.16
2022-09-20T16:56:36.404Z,98949.84
2022-09-20T16:59:04.929Z,98948.16
2022-09-20T17:01:32.054Z,98950.72
2022-09-20T17:03:58.982Z,98946.41
2022-09-20T17:06:26.808Z,98949.84
2022-09-20T17:08:58.856Z,98947.28
2022-09-20T17:11:28.115Z,98944.72
2022-09-20T17:13:55.762Z,98956.72
2022-09-20T17:16:30.422Z,98954.97
2022-09-20T17:19:01.028Z,98960.09
2022-09-20T17:21:29.959Z,98961.81
2022-09-20T17:23:58.738Z,98951.50
2022-09-20T17:26:26.485Z,98957.53
2022-09-20T17:28:56.309Z,98957.53
2022-09-20T17:31:28.565Z,98956.69
2022-09-20T17:33:55.774Z,98949.81
2022-09-20T17:36:22.405Z,98961.81
2022-09-20T17:38:54.268Z,98956.63
2022-09-20T17:41:21.902Z,98962.59
2022-09-20T17:43:52.354Z,98972.00
2022-09-20T17:46:22.905Z,98965.19
2022-09-20T17:48:54.344Z,98966.03
2022-09-20T17:51:22.460Z,98972.03
2022-09-20T17:53:49.071Z,98965.19
2022-09-20T17:56:15.827Z,98967.75
2022-09-20T17:58:42.403Z,98965.19
2022-09-20T18:01:15.167Z,98967.75
2022-09-20T18:03:45.384Z,98961.78
2022-09-20T18:06:30.130Z,98966.06
2022-09-20T18:09:02.511Z,98959.19
2022-09-20T18:11:34.172Z,98974.59
2022-09-20T18:14:02.999Z,98970.34
2022-09-20T18:16:31.171Z,98972.91
2022-09-20T18:18:59.888Z,98972.91
2022-09-20T18:21:28.705Z,98972.03
2022-09-20T18:23:56.002Z,98967.75
2022-09-20T18:26:24.967Z,98970.31
2022-09-20T18:29:01.450Z,98972.00
2022-09-20T18:31:35.973Z,98966.88
2022-09-20T18:34:05.503Z,98972.00
2022-09-20T18:36:34.100Z,98964.28
2022-09-20T18:39:00.699Z,98957.41
2022-09-20T18:41:36.744Z,98971.97
2022-09-20T18:44:07.172Z,98963.44
2022-09-20T18:46:37.978Z,98968.56
2022-09-20T18:49:08.677Z,98973.72
2022-09-20T18:51:39.709Z,98974.56
2022-09-20T18:54:10.026Z,98972.00
2022-09-20T18:56:39.420Z,98966.00
2022-09-20T18:59:08.517Z,98970.28
2022-09-20T19:01:44.372Z,98968.56
2022-09-20T19:04:24.660Z,98977.09
2022-09-20T19:07:16.084Z,98985.66
2022-09-20T19:09:53.285Z,98986.53
2022-09-20T19:12:31.849Z,98985.63
2022-09-20T19:15:35.802Z,98988.22
2022-09-20T19:18:27.445Z,98982.25
2022-09-20T19:21:03.057Z,98989.91
2022-09-20T19:24:10.994Z,98995.91
2022-09-20T19:26:38.635Z,98993.38
2022-09-20T19:29:18.964Z,98994.16
2022-09-20T19:31:48.477Z,98996.78
2022-09-20T19:34:23.892Z,98990.81
2022-09-20T19:37:02.532Z,98996.81
2022-09-20T19:39:48.024Z,98999.38
2022-09-20T19:42:33.436Z,98995.97
2022-09-20T19:45:09.080Z,98995.94
2022-09-20T19:47:57.041Z,98997.63
2022-09-20T19:50:33.187Z,98993.38
2022-09-20T19:53:03.955Z,98987.38
2022-09-20T19:55:32.181Z,98997.63
2022-09-20T19:57:59.114Z,98995.06
2022-09-20T20:00:26.186Z,98997.66
2022-09-20T20:02:53.949Z,98990.78
2022-09-20T20:05:27.707Z,98990.78
2022-09-20T20:08:16.169Z,98991.59
2022-09-20T20:11:09.750Z,98985.59
2022-09-20T20:14:04.453Z,98983.03
2022-09-20T20:16:52.369Z,98977.03
2022-09-20T20:19:40.749Z,98983.00
2022-09-20T20:22:31.742Z,98978.72
2022-09-20T20:24:58.377Z,98981.28
2022-09-20T20:27:28.423Z,98970.13
2022-09-20T20:29:55.907Z,98981.25
2022-09-20T20:32:22.998Z,98981.25
2022-09-20T20:34:49.555Z,98980.38
2022-09-20T20:37:18.233Z,98974.38
2022-09-20T20:39:44.819Z,98982.09
2022-09-20T20:42:12.825Z,98975.25
2022-09-20T20:44:40.068Z,98973.56
2022-09-20T20:47:07.140Z,98961.56
2022-09-20T20:49:33.820Z,98974.41
2022-09-20T20:52:04.768Z,98978.69
2022-09-20T20:54:32.273Z,98970.97
2022-09-20T20:56:59.442Z,98971.84
2022-09-20T20:59:26.425Z,98968.41
2022-09-20T21:01:53.025Z,98958.13
2022-09-20T21:04:19.980Z,98962.38
2022-09-20T21:06:46.695Z,98958.91
2022-09-20T21:09:13.533Z,98961.44
2022-09-20T21:11:44.690Z,98962.28
2022-09-20T21:14:12.542Z,98961.41
2022-09-20T21:16:45.045Z,98961.41
2022-09-20T21:19:15.658Z,98959.72
2022-09-20T21:21:43.825Z,98952.00
2022-09-20T21:24:12.850Z,98968.25
2022-09-20T21:26:40.207Z,98968.28
2022-09-20T21:29:10.924Z,98961.41
2022-09-20T21:31:43.059Z,98957.16
2022-09-20T21:34:12.625Z,98966.56
2022-09-20T21:36:43.963Z,98963.09
2022-09-20T21:39:10.687Z,98964.84
2022-09-20T21:41:38.549Z,98958.81
2022-09-20T21:44:06.616Z,98965.63
2022-09-20T21:46:35.354Z,98963.94
2022-09-20T21:49:04.063Z,98964.75
2022-09-20T21:51:31.799Z,98961.31
2022-09-20T21:54:01.459Z,98969.00
2022-09-20T21:56:32.890Z,98964.78
2022-09-20T21:59:01.990Z,98971.63
2022-09-20T22:01:29.393Z,98969.91
2022-09-20T22:03:59.144Z,98971.63
2022-09-20T22:06:28.566Z,98976.75
2022-09-20T22:09:03.826Z,98981.88
2022-09-20T22:11:32.853Z,98987.03
2022-09-20T22:14:00.162Z,98984.44
2022-09-20T22:16:29.518Z,98989.56
2022-09-20T22:18:56.145Z,98983.53
2022-09-20T22:21:31.378Z,98983.59
2022-09-20T22:24:00.769Z,98987.88
2022-09-20T22:26:39.096Z,98977.56
2022-09-20T22:29:06.566Z,98979.31
2022-09-20T22:31:36.218Z,98975.03
2022-09-20T22:34:05.240Z,98981.03
2022-09-20T22:36:37.733Z,98989.56
2022-09-20T22:39:07.520Z,98978.41
2022-09-20T22:41:34.781Z,98986.09
2022-09-20T22:44:01.513Z,98993.84
2022-09-20T22:46:30.023Z,98978.44
2022-09-20T22:48:56.864Z,98985.22
2022-09-20T22:51:33.216Z,98989.47
2022-09-20T22:54:03.878Z,98982.59
2022-09-20T22:56:31.204Z,98978.22
2022-09-20T22:59:00.593Z,98979.06
2022-09-20T23:01:29.658Z,98981.50
2022-09-20T23:04:07.671Z,98984.91
2022-09-20T23:06:49.234Z,98981.44
2022-09-20T23:09:18.009Z,98987.38
2022-09-20T23:11:45.064Z,98992.47
2022-09-20T23:14:14.179Z,98979.63
2022-09-20T23:16:41.085Z,98991.56
2022-09-20T23:19:08.724Z,98989.81
2022-09-20T23:21:37.419Z,98991.56
2022-09-20T23:24:06.500Z,98999.25
2022-09-20T23:26:34.498Z,98989.81
2022-09-20T23:29:09.334Z,98982.13
2022-09-20T23:31:37.687Z,98986.44
2022-09-20T23:34:06.085Z,98987.25
2022-09-20T23:36:35.150Z,98981.28
2022-09-20T23:39:01.728Z,98980.44
2022-09-20T23:41:29.107Z,98971.03
2022-09-20T23:43:55.922Z,98976.09
2022-09-20T23:46:23.955Z,98981.25
2022-09-20T23:48:51.086Z,98969.25
2022-09-20T23:51:23.422Z,98979.50
2022-09-20T23:53:51.777Z,98971.81
2022-09-20T23:56:19.774Z,98970.91
2022-09-20T23:58:46.406Z,98962.38
